Ogden, Kansas
Current Conditions -  °F | °C
As of 9:52 PM on Sunday 23 Nov 2014 (Local Time) from KMHK Reporting Station
Clear Clear  
Wind Chill: 38°   Ceiling: Unl
Heat Index: 41°   Visibility: 10mi
Dew Point: 34°   Wind: 5mph
Humidity: 76%   Direction: NA
Pressure: 29.6"   Gusts: NA
Location:  39.11°N, 96.71°W
Report Text: KMHK 240352Z AUTO VRB04KT 10SM CLR 05/01 A2960 RMK AO2 SLP025 T00500011 TSNO
Loading
Personal Weather Stations






























Interactive Weather Map New forecast layout! Learn more

10-Day Weather Forecast

Advertisements
Track Severe Weather on mobile